sensor_id;sensor_type;location;lat;lon;timestamp;temperature;humidity
3071;DHT22;1546;47.208;9.038;2022-10-30T00:01:41;14.10;99.90
3071;DHT22;1546;47.208;9.038;2022-10-30T00:04:09;14.10;99.90
3071;DHT22;1546;47.208;9.038;2022-10-30T00:06:37;14.20;99.90
3071;DHT22;1546;47.208;9.038;2022-10-30T00:09:03;14.20;99.90
3071;DHT22;1546;47.208;9.038;2022-10-30T00:11:30;14.20;99.90
3071;DHT22;1546;47.208;9.038;2022-10-30T00:13:57;14.10;99.90
3071;DHT22;1546;47.208;9.038;2022-10-30T00:16:24;14.10;99.90
3071;DHT22;1546;47.208;9.038;2022-10-30T00:18:51;14.00;99.90
3071;DHT22;1546;47.208;9.038;2022-10-30T00:21:18;13.90;99.90
3071;DHT22;1546;47.208;9.038;2022-10-30T00:23:47;13.90;99.90
3071;DHT22;1546;47.208;9.038;2022-10-30T00:26:17;13.90;99.90
3071;DHT22;1546;47.208;9.038;2022-10-30T00:28:48;13.90;99.90
3071;DHT22;1546;47.208;9.038;2022-10-30T00:31:15;14.10;99.90
3071;DHT22;1546;47.208;9.038;2022-10-30T00:33:41;14.20;99.90
3071;DHT22;1546;47.208;9.038;2022-10-30T00:36:08;14.00;99.90
3071;DHT22;1546;47.208;9.038;2022-10-30T00:38:35;13.80;99.90
3071;DHT22;1546;47.208;9.038;2022-10-30T00:41:04;13.70;99.90
3071;DHT22;1546;47.208;9.038;2022-10-30T00:43:33;13.60;99.90
3071;DHT22;1546;47.208;9.038;2022-10-30T00:46:05;13.60;99.90
3071;DHT22;1546;47.208;9.038;2022-10-30T00:48:33;13.60;99.90
3071;DHT22;1546;47.208;9.038;2022-10-30T00:51:01;13.70;99.90
3071;DHT22;1546;47.208;9.038;2022-10-30T00:53:30;13.60;99.90
3071;DHT22;1546;47.208;9.038;2022-10-30T00:56:01;13.50;99.90
3071;DHT22;1546;47.208;9.038;2022-10-30T00:58:35;13.50;99.90
3071;DHT22;1546;47.208;9.038;2022-10-30T01:01:06;13.50;99.90
3071;DHT22;1546;47.208;9.038;2022-10-30T01:03:34;13.60;99.90
3071;DHT22;1546;47.208;9.038;2022-10-30T01:06:06;13.50;99.90
3071;DHT22;1546;47.208;9.038;2022-10-30T01:08:34;13.40;99.90
3071;DHT22;1546;47.208;9.038;2022-10-30T01:11:04;13.40;99.90
3071;DHT22;1546;47.208;9.038;2022-10-30T01:13:33;13.40;99.90
3071;DHT22;1546;47.208;9.038;2022-10-30T01:16:17;13.40;99.90
3071;DHT22;1546;47.208;9.038;2022-10-30T01:18:51;13.40;99.90
3071;DHT22;1546;47.208;9.038;2022-10-30T01:21:38;13.30;99.90
3071;DHT22;1546;47.208;9.038;2022-10-30T01:24:28;13.20;99.90
3071;DHT22;1546;47.208;9.038;2022-10-30T01:27:03;13.10;99.90
3071;DHT22;1546;47.208;9.038;2022-10-30T01:29:43;13.00;99.90
3071;DHT22;1546;47.208;9.038;2022-10-30T01:32:28;12.90;99.90
3071;DHT22;1546;47.208;9.038;2022-10-30T01:35:04;13.10;99.90
3071;DHT22;1546;47.208;9.038;2022-10-30T01:37:38;12.90;99.90
3071;DHT22;1546;47.208;9.038;2022-10-30T01:40:12;13.00;99.90
3071;DHT22;1546;47.208;9.038;2022-10-30T01:42:45;13.00;99.90
3071;DHT22;1546;47.208;9.038;2022-10-30T01:45:18;13.00;99.90
3071;DHT22;1546;47.208;9.038;2022-10-30T01:47:58;13.20;99.90
3071;DHT22;1546;47.208;9.038;2022-10-30T01:50:35;13.20;99.90
3071;DHT22;1546;47.208;9.038;2022-10-30T01:53:12;13.20;99.90
3071;DHT22;1546;47.208;9.038;2022-10-30T01:55:52;13.10;99.90
3071;DHT22;1546;47.208;9.038;2022-10-30T01:58:25;12.90;99.90
3071;DHT22;1546;47.208;9.038;2022-10-30T02:00:57;13.00;99.90
3071;DHT22;1546;47.208;9.038;2022-10-30T02:03:24;13.00;99.90
3071;DHT22;1546;47.208;9.038;2022-10-30T02:05:52;13.10;99.90
3071;DHT22;1546;47.208;9.038;2022-10-30T02:08:20;13.10;99.90
3071;DHT22;1546;47.208;9.038;2022-10-30T02:10:48;12.90;99.90
3071;DHT22;1546;47.208;9.038;2022-10-30T02:13:17;12.90;99.90
3071;DHT22;1546;47.208;9.038;2022-10-30T02:15:45;12.90;99.90
3071;DHT22;1546;47.208;9.038;2022-10-30T02:18:14;12.90;99.90
3071;DHT22;1546;47.208;9.038;2022-10-30T02:20:42;12.90;99.90
3071;DHT22;1546;47.208;9.038;2022-10-30T02:23:09;13.10;99.90
3071;DHT22;1546;47.208;9.038;2022-10-30T02:25:41;13.10;99.90
3071;DHT22;1546;47.208;9.038;2022-10-30T02:28:08;13.20;99.90
3071;DHT22;1546;47.208;9.038;2022-10-30T02:30:34;13.20;99.90
3071;DHT22;1546;47.208;9.038;2022-10-30T02:33:01;13.20;99.90
3071;DHT22;1546;47.208;9.038;2022-10-30T02:35:29;13.20;99.90
3071;DHT22;1546;47.208;9.038;2022-10-30T02:37:57;13.20;99.90
3071;DHT22;1546;47.208;9.038;2022-10-30T02:40:24;13.20;99.90
3071;DHT22;1546;47.208;9.038;2022-10-30T02:42:51;13.30;99.90
3071;DHT22;1546;47.208;9.038;2022-10-30T02:45:18;13.40;99.90
3071;DHT22;1546;47.208;9.038;2022-10-30T02:47:45;13.40;99.90
3071;DHT22;1546;47.208;9.038;2022-10-30T02:50:12;13.20;99.90
3071;DHT22;1546;47.208;9.038;2022-10-30T02:52:39;13.20;99.90
3071;DHT22;1546;47.208;9.038;2022-10-30T02:55:08;13.20;99.90
3071;DHT22;1546;47.208;9.038;2022-10-30T02:57:34;13.00;99.90
3071;DHT22;1546;47.208;9.038;2022-10-30T03:00:02;13.00;99.90
3071;DHT22;1546;47.208;9.038;2022-10-30T03:02:29;13.00;99.90
3071;DHT22;1546;47.208;9.038;2022-10-30T03:04:56;13.10;99.90
3071;DHT22;1546;47.208;9.038;2022-10-30T03:07:22;13.20;99.90
3071;DHT22;1546;47.208;9.038;2022-10-30T03:09:49;13.10;99.90
3071;DHT22;1546;47.208;9.038;2022-10-30T03:12:18;13.10;99.90
3071;DHT22;1546;47.208;9.038;2022-10-30T03:14:44;13.10;99.90
3071;DHT22;1546;47.208;9.038;2022-10-30T03:17:11;13.00;99.90
3071;DHT22;1546;47.208;9.038;2022-10-30T03:19:38;13.10;99.90
3071;DHT22;1546;47.208;9.038;2022-10-30T03:22:06;13.20;99.90
3071;DHT22;1546;47.208;9.038;2022-10-30T03:24:33;13.30;99.90
3071;DHT22;1546;47.208;9.038;2022-10-30T03:27:00;13.30;99.90
3071;DHT22;1546;47.208;9.038;2022-10-30T03:29:29;13.30;99.90
3071;DHT22;1546;47.208;9.038;2022-10-30T03:31:55;13.20;99.90
3071;DHT22;1546;47.208;9.038;2022-10-30T03:34:22;13.30;99.90
3071;DHT22;1546;47.208;9.038;2022-10-30T03:36:49;13.40;99.90
3071;DHT22;1546;47.208;9.038;2022-10-30T03:39:16;13.20;99.90
3071;DHT22;1546;47.208;9.038;2022-10-30T03:41:43;13.20;99.90
3071;DHT22;1546;47.208;9.038;2022-10-30T03:44:10;13.20;99.90
3071;DHT22;1546;47.208;9.038;2022-10-30T03:46:38;13.00;99.90
3071;DHT22;1546;47.208;9.038;2022-10-30T03:49:05;12.80;99.90
3071;DHT22;1546;47.208;9.038;2022-10-30T03:51:32;12.80;99.90
3071;DHT22;1546;47.208;9.038;2022-10-30T03:53:59;12.70;99.90
3071;DHT22;1546;47.208;9.038;2022-10-30T03:56:25;12.60;99.90
3071;DHT22;1546;47.208;9.038;2022-10-30T03:58:52;12.70;99.90
3071;DHT22;1546;47.208;9.038;2022-10-30T04:01:19;12.70;99.90
3071;DHT22;1546;47.208;9.038;2022-10-30T04:03:47;12.80;99.90
3071;DHT22;1546;47.208;9.038;2022-10-30T04:06:14;12.80;99.90
3071;DHT22;1546;47.208;9.038;2022-10-30T04:08:41;12.90;99.90
3071;DHT22;1546;47.208;9.038;2022-10-30T04:11:08;12.80;99.90
3071;DHT22;1546;47.208;9.038;2022-10-30T04:13:36;12.70;99.90
3071;DHT22;1546;47.208;9.038;2022-10-30T04:16:03;12.70;99.90
3071;DHT22;1546;47.208;9.038;2022-10-30T04:18:31;12.70;99.90
3071;DHT22;1546;47.208;9.038;2022-10-30T04:20:59;12.80;99.90
3071;DHT22;1546;47.208;9.038;2022-10-30T04:23:26;12.80;99.90
3071;DHT22;1546;47.208;9.038;2022-10-30T04:25:53;12.90;99.90
3071;DHT22;1546;47.208;9.038;2022-10-30T04:28:20;12.80;99.90
3071;DHT22;1546;47.208;9.038;2022-10-30T04:30:47;12.80;99.90
3071;DHT22;1546;47.208;9.038;2022-10-30T04:33:14;12.70;99.90
3071;DHT22;1546;47.208;9.038;2022-10-30T04:35:41;12.70;99.90
3071;DHT22;1546;47.208;9.038;2022-10-30T04:38:11;12.70;99.90
3071;DHT22;1546;47.208;9.038;2022-10-30T04:40:40;12.60;99.90
3071;DHT22;1546;47.208;9.038;2022-10-30T04:43:09;12.60;99.90
3071;DHT22;1546;47.208;9.038;2022-10-30T04:45:36;12.70;99.90
3071;DHT22;1546;47.208;9.038;2022-10-30T04:48:04;12.80;99.90
3071;DHT22;1546;47.208;9.038;2022-10-30T04:50:32;12.50;99.90
3071;DHT22;1546;47.208;9.038;2022-10-30T04:53:00;12.40;99.90
3071;DHT22;1546;47.208;9.038;2022-10-30T04:55:28;12.30;99.90
3071;DHT22;1546;47.208;9.038;2022-10-30T04:57:56;12.50;99.90
3071;DHT22;1546;47.208;9.038;2022-10-30T05:00:23;12.60;99.90
3071;DHT22;1546;47.208;9.038;2022-10-30T05:02:50;12.60;99.90
3071;DHT22;1546;47.208;9.038;2022-10-30T05:05:17;12.40;99.90
3071;DHT22;1546;47.208;9.038;2022-10-30T05:07:44;12.40;99.90
3071;DHT22;1546;47.208;9.038;2022-10-30T05:10:12;12.50;99.90
3071;DHT22;1546;47.208;9.038;2022-10-30T05:12:41;12.70;99.90
3071;DHT22;1546;47.208;9.038;2022-10-30T05:15:09;12.60;99.90
3071;DHT22;1546;47.208;9.038;2022-10-30T05:17:35;12.70;99.90
3071;DHT22;1546;47.208;9.038;2022-10-30T05:20:03;12.70;99.90
3071;DHT22;1546;47.208;9.038;2022-10-30T05:22:30;12.70;99.90
3071;DHT22;1546;47.208;9.038;2022-10-30T05:24:57;12.70;99.90
3071;DHT22;1546;47.208;9.038;2022-10-30T05:27:24;12.60;99.90
3071;DHT22;1546;47.208;9.038;2022-10-30T05:29:52;12.70;99.90
3071;DHT22;1546;47.208;9.038;2022-10-30T05:32:19;12.60;99.90
3071;DHT22;1546;47.208;9.038;2022-10-30T05:34:46;12.60;99.90
3071;DHT22;1546;47.208;9.038;2022-10-30T05:37:13;12.70;99.90
3071;DHT22;1546;47.208;9.038;2022-10-30T05:39:39;12.70;99.90
3071;DHT22;1546;47.208;9.038;2022-10-30T05:42:06;12.70;99.90
3071;DHT22;1546;47.208;9.038;2022-10-30T05:44:33;12.70;99.90
3071;DHT22;1546;47.208;9.038;2022-10-30T05:47:02;12.60;99.90
3071;DHT22;1546;47.208;9.038;2022-10-30T05:49:28;12.60;99.90
3071;DHT22;1546;47.208;9.038;2022-10-30T05:51:55;12.70;99.90
3071;DHT22;1546;47.208;9.038;2022-10-30T05:54:22;12.70;99.90
3071;DHT22;1546;47.208;9.038;2022-10-30T05:56:49;12.70;99.90
3071;DHT22;1546;47.208;9.038;2022-10-30T05:59:16;12.70;99.90
3071;DHT22;1546;47.208;9.038;2022-10-30T06:01:42;12.60;99.90
3071;DHT22;1546;47.208;9.038;2022-10-30T06:04:11;12.50;99.90
3071;DHT22;1546;47.208;9.038;2022-10-30T06:06:37;12.60;99.90
3071;DHT22;1546;47.208;9.038;2022-10-30T06:09:04;12.70;99.90
3071;DHT22;1546;47.208;9.038;2022-10-30T06:11:31;12.80;99.90
3071;DHT22;1546;47.208;9.038;2022-10-30T06:13:58;12.90;99.90
3071;DHT22;1546;47.208;9.038;2022-10-30T06:16:25;12.80;99.90
3071;DHT22;1546;47.208;9.038;2022-10-30T06:18:52;12.80;99.90
3071;DHT22;1546;47.208;9.038;2022-10-30T06:21:20;12.80;99.90
3071;DHT22;1546;47.208;9.038;2022-10-30T06:23:47;12.80;99.90
3071;DHT22;1546;47.208;9.038;2022-10-30T06:26:14;12.80;99.90
3071;DHT22;1546;47.208;9.038;2022-10-30T06:28:41;12.80;99.90
3071;DHT22;1546;47.208;9.038;2022-10-30T06:31:08;12.70;99.90
3071;DHT22;1546;47.208;9.038;2022-10-30T06:33:34;12.60;99.90
3071;DHT22;1546;47.208;9.038;2022-10-30T06:36:01;12.70;99.90
3071;DHT22;1546;47.208;9.038;2022-10-30T06:38:30;12.70;99.90
3071;DHT22;1546;47.208;9.038;2022-10-30T06:40:56;12.70;99.90
3071;DHT22;1546;47.208;9.038;2022-10-30T06:43:23;12.70;99.90
3071;DHT22;1546;47.208;9.038;2022-10-30T06:45:50;12.70;99.90
3071;DHT22;1546;47.208;9.038;2022-10-30T06:48:17;12.80;99.90
3071;DHT22;1546;47.208;9.038;2022-10-30T06:50:44;12.80;99.90
3071;DHT22;1546;47.208;9.038;2022-10-30T06:53:10;12.80;99.90
3071;DHT22;1546;47.208;9.038;2022-10-30T06:55:39;12.70;99.90
3071;DHT22;1546;47.208;9.038;2022-10-30T06:58:06;12.90;99.90
3071;DHT22;1546;47.208;9.038;2022-10-30T07:00:32;12.90;99.90
3071;DHT22;1546;47.208;9.038;2022-10-30T07:03:00;12.90;99.90
3071;DHT22;1546;47.208;9.038;2022-10-30T07:05:29;12.90;99.90
3071;DHT22;1546;47.208;9.038;2022-10-30T07:07:56;12.90;99.90
3071;DHT22;1546;47.208;9.038;2022-10-30T07:10:23;12.80;99.90
3071;DHT22;1546;47.208;9.038;2022-10-30T07:12:53;12.70;99.90
3071;DHT22;1546;47.208;9.038;2022-10-30T07:15:20;12.70;99.90
3071;DHT22;1546;47.208;9.038;2022-10-30T07:17:54;12.90;99.90
3071;DHT22;1546;47.208;9.038;2022-10-30T07:20:22;13.00;99.90
3071;DHT22;1546;47.208;9.038;2022-10-30T07:22:49;13.00;99.90
3071;DHT22;1546;47.208;9.038;2022-10-30T07:25:16;13.10;99.90
3071;DHT22;1546;47.208;9.038;2022-10-30T07:27:43;13.20;99.90
3071;DHT22;1546;47.208;9.038;2022-10-30T07:30:13;13.20;99.90
3071;DHT22;1546;47.208;9.038;2022-10-30T07:32:40;13.10;99.90
3071;DHT22;1546;47.208;9.038;2022-10-30T07:35:08;13.20;99.90
3071;DHT22;1546;47.208;9.038;2022-10-30T07:37:35;13.20;99.90
3071;DHT22;1546;47.208;9.038;2022-10-30T07:40:02;13.20;99.90
3071;DHT22;1546;47.208;9.038;2022-10-30T07:42:29;13.20;99.90
3071;DHT22;1546;47.208;9.038;2022-10-30T07:44:56;13.40;99.90
3071;DHT22;1546;47.208;9.038;2022-10-30T07:47:24;13.40;99.90
3071;DHT22;1546;47.208;9.038;2022-10-30T07:49:51;13.60;99.90
3071;DHT22;1546;47.208;9.038;2022-10-30T07:52:18;13.80;99.90
3071;DHT22;1546;47.208;9.038;2022-10-30T07:54:45;13.80;99.90
3071;DHT22;1546;47.208;9.038;2022-10-30T07:57:11;14.00;99.90
3071;DHT22;1546;47.208;9.038;2022-10-30T07:59:38;14.10;99.90
3071;DHT22;1546;47.208;9.038;2022-10-30T08:02:06;14.10;99.90
3071;DHT22;1546;47.208;9.038;2022-10-30T08:04:35;14.00;99.90
3071;DHT22;1546;47.208;9.038;2022-10-30T08:07:01;14.20;99.90
3071;DHT22;1546;47.208;9.038;2022-10-30T08:09:28;14.30;99.90
3071;DHT22;1546;47.208;9.038;2022-10-30T08:11:55;14.30;99.90
3071;DHT22;1546;47.208;9.038;2022-10-30T08:14:22;14.20;99.90
3071;DHT22;1546;47.208;9.038;2022-10-30T08:16:49;14.30;99.90
3071;DHT22;1546;47.208;9.038;2022-10-30T08:19:16;14.40;99.90
3071;DHT22;1546;47.208;9.038;2022-10-30T08:21:45;14.40;99.90
3071;DHT22;1546;47.208;9.038;2022-10-30T08:24:12;14.60;99.90
3071;DHT22;1546;47.208;9.038;2022-10-30T08:26:39;14.70;99.90
3071;DHT22;1546;47.208;9.038;2022-10-30T08:29:05;14.70;99.90
3071;DHT22;1546;47.208;9.038;2022-10-30T08:31:32;14.70;99.90
3071;DHT22;1546;47.208;9.038;2022-10-30T08:33:59;14.80;99.90
3071;DHT22;1546;47.208;9.038;2022-10-30T08:36:26;14.70;99.90
3071;DHT22;1546;47.208;9.038;2022-10-30T08:38:54;14.70;99.90
3071;DHT22;1546;47.208;9.038;2022-10-30T08:41:23;14.80;99.90
3071;DHT22;1546;47.208;9.038;2022-10-30T08:43:49;15.00;99.90
3071;DHT22;1546;47.208;9.038;2022-10-30T08:46:16;15.10;99.90
3071;DHT22;1546;47.208;9.038;2022-10-30T08:48:43;15.20;99.90
3071;DHT22;1546;47.208;9.038;2022-10-30T08:51:10;15.30;99.90
3071;DHT22;1546;47.208;9.038;2022-10-30T08:53:37;15.50;99.90
3071;DHT22;1546;47.208;9.038;2022-10-30T08:56:05;15.70;99.90
3071;DHT22;1546;47.208;9.038;2022-10-30T08:58:32;15.90;99.90
3071;DHT22;1546;47.208;9.038;2022-10-30T09:01:00;16.00;99.90
3071;DHT22;1546;47.208;9.038;2022-10-30T09:03:27;16.10;99.90
3071;DHT22;1546;47.208;9.038;2022-10-30T09:05:54;16.20;99.90
3071;DHT22;1546;47.208;9.038;2022-10-30T09:08:23;16.20;99.90
3071;DHT22;1546;47.208;9.038;2022-10-30T09:10:53;16.10;99.90
3071;DHT22;1546;47.208;9.038;2022-10-30T09:13:21;16.00;99.90
3071;DHT22;1546;47.208;9.038;2022-10-30T09:15:48;15.80;99.90
3071;DHT22;1546;47.208;9.038;2022-10-30T09:18:15;15.80;99.90
3071;DHT22;1546;47.208;9.038;2022-10-30T09:20:42;15.80;99.90
3071;DHT22;1546;47.208;9.038;2022-10-30T09:23:09;15.80;99.90
3071;DHT22;1546;47.208;9.038;2022-10-30T09:25:35;15.90;99.90
3071;DHT22;1546;47.208;9.038;2022-10-30T09:28:02;15.90;99.90
3071;DHT22;1546;47.208;9.038;2022-10-30T09:30:30;16.00;99.90
3071;DHT22;1546;47.208;9.038;2022-10-30T09:32:58;16.10;99.90
3071;DHT22;1546;47.208;9.038;2022-10-30T09:35:26;16.10;99.90
3071;DHT22;1546;47.208;9.038;2022-10-30T09:37:53;16.10;99.90
3071;DHT22;1546;47.208;9.038;2022-10-30T09:40:22;16.20;99.90
3071;DHT22;1546;47.208;9.038;2022-10-30T09:42:57;16.20;99.90
3071;DHT22;1546;47.208;9.038;2022-10-30T09:52:07;16.10;99.90
3071;DHT22;1546;47.208;9.038;2022-10-30T09:54:49;16.20;99.90
3071;DHT22;1546;47.208;9.038;2022-10-30T09:57:23;16.20;99.90
3071;DHT22;1546;47.208;9.038;2022-10-30T10:00:01;16.30;99.90
3071;DHT22;1546;47.208;9.038;2022-10-30T10:02:34;16.40;99.90
3071;DHT22;1546;47.208;9.038;2022-10-30T10:05:14;16.40;99.90
3071;DHT22;1546;47.208;9.038;2022-10-30T10:07:46;16.60;99.90
3071;DHT22;1546;47.208;9.038;2022-10-30T10:10:19;16.50;99.90
3071;DHT22;1546;47.208;9.038;2022-10-30T10:12:49;16.70;99.90
3071;DHT22;1546;47.208;9.038;2022-10-30T10:15:23;16.90;99.90
3071;DHT22;1546;47.208;9.038;2022-10-30T10:17:54;17.00;99.90
3071;DHT22;1546;47.208;9.038;2022-10-30T10:20:29;17.10;99.90
3071;DHT22;1546;47.208;9.038;2022-10-30T10:23:01;17.10;99.90
3071;DHT22;1546;47.208;9.038;2022-10-30T10:25:30;17.30;99.90
3071;DHT22;1546;47.208;9.038;2022-10-30T10:28:06;17.30;99.90
3071;DHT22;1546;47.208;9.038;2022-10-30T10:30:43;17.40;99.90
3071;DHT22;1546;47.208;9.038;2022-10-30T10:33:25;17.40;99.90
3071;DHT22;1546;47.208;9.038;2022-10-30T10:36:12;17.50;99.90
3071;DHT22;1546;47.208;9.038;2022-10-30T10:39:01;17.80;99.90
3071;DHT22;1546;47.208;9.038;2022-10-30T10:41:41;18.00;99.90
3071;DHT22;1546;47.208;9.038;2022-10-30T10:44:24;18.20;99.90
3071;DHT22;1546;47.208;9.038;2022-10-30T10:47:04;18.20;99.90
3071;DHT22;1546;47.208;9.038;2022-10-30T10:49:42;18.30;99.90
3071;DHT22;1546;47.208;9.038;2022-10-30T10:52:15;18.40;99.90
3071;DHT22;1546;47.208;9.038;2022-10-30T10:54:46;18.30;99.90
3071;DHT22;1546;47.208;9.038;2022-10-30T10:57:16;18.30;99.90
3071;DHT22;1546;47.208;9.038;2022-10-30T10:59:50;18.40;99.90
3071;DHT22;1546;47.208;9.038;2022-10-30T11:02:30;18.50;99.90
3071;DHT22;1546;47.208;9.038;2022-10-30T11:05:03;18.70;99.90
3071;DHT22;1546;47.208;9.038;2022-10-30T11:07:36;18.50;99.90
3071;DHT22;1546;47.208;9.038;2022-10-30T11:10:11;18.60;99.90
3071;DHT22;1546;47.208;9.038;2022-10-30T11:12:39;18.60;99.90
3071;DHT22;1546;47.208;9.038;2022-10-30T11:15:34;18.60;99.90
3071;DHT22;1546;47.208;9.038;2022-10-30T11:18:04;18.70;99.90
3071;DHT22;1546;47.208;9.038;2022-10-30T11:20:37;18.90;99.90
3071;DHT22;1546;47.208;9.038;2022-10-30T11:23:30;19.00;99.90
3071;DHT22;1546;47.208;9.038;2022-10-30T11:25:57;19.10;99.90
3071;DHT22;1546;47.208;9.038;2022-10-30T11:28:38;19.30;99.90
3071;DHT22;1546;47.208;9.038;2022-10-30T11:31:20;19.40;99.90
3071;DHT22;1546;47.208;9.038;2022-10-30T11:33:48;19.80;99.90
3071;DHT22;1546;47.208;9.038;2022-10-30T11:36:17;20.20;99.90
3071;DHT22;1546;47.208;9.038;2022-10-30T11:38:45;20.40;99.90
3071;DHT22;1546;47.208;9.038;2022-10-30T11:41:12;20.70;99.60
3071;DHT22;1546;47.208;9.038;2022-10-30T11:43:40;21.10;99.50
3071;DHT22;1546;47.208;9.038;2022-10-30T11:46:09;21.30;98.20
3071;DHT22;1546;47.208;9.038;2022-10-30T11:48:38;21.30;97.70
3071;DHT22;1546;47.208;9.038;2022-10-30T11:51:06;21.20;97.80
3071;DHT22;1546;47.208;9.038;2022-10-30T11:53:34;21.30;98.70
3071;DHT22;1546;47.208;9.038;2022-10-30T11:56:12;20.80;99.20
3071;DHT22;1546;47.208;9.038;2022-10-30T11:58:44;20.90;99.40
3071;DHT22;1546;47.208;9.038;2022-10-30T12:01:18;21.20;99.30
3071;DHT22;1546;47.208;9.038;2022-10-30T12:03:46;21.50;98.10
3071;DHT22;1546;47.208;9.038;2022-10-30T12:06:17;21.50;97.90
3071;DHT22;1546;47.208;9.038;2022-10-30T12:08:58;21.80;98.00
3071;DHT22;1546;47.208;9.038;2022-10-30T12:11:29;22.20;97.50
3071;DHT22;1546;47.208;9.038;2022-10-30T12:13:57;22.60;97.30
3071;DHT22;1546;47.208;9.038;2022-10-30T12:16:25;22.70;96.10
3071;DHT22;1546;47.208;9.038;2022-10-30T12:18:58;22.60;96.90
3071;DHT22;1546;47.208;9.038;2022-10-30T12:21:29;22.70;96.40
3071;DHT22;1546;47.208;9.038;2022-10-30T12:23:58;22.80;95.90
3071;DHT22;1546;47.208;9.038;2022-10-30T12:26:33;22.70;95.20
3071;DHT22;1546;47.208;9.038;2022-10-30T12:29:04;22.40;94.60
3071;DHT22;1546;47.208;9.038;2022-10-30T12:31:36;22.00;95.10
3071;DHT22;1546;47.208;9.038;2022-10-30T12:34:14;21.80;95.30
3071;DHT22;1546;47.208;9.038;2022-10-30T12:36:46;21.80;95.70
3071;DHT22;1546;47.208;9.038;2022-10-30T12:39:17;21.80;95.60
3071;DHT22;1546;47.208;9.038;2022-10-30T12:41:56;21.60;94.90
3071;DHT22;1546;47.208;9.038;2022-10-30T12:44:27;21.60;95.60
3071;DHT22;1546;47.208;9.038;2022-10-30T12:46:57;21.70;95.40
3071;DHT22;1546;47.208;9.038;2022-10-30T12:49:30;21.60;95.60
3071;DHT22;1546;47.208;9.038;2022-10-30T12:52:04;21.60;95.30
3071;DHT22;1546;47.208;9.038;2022-10-30T12:54:37;21.30;95.50
3071;DHT22;1546;47.208;9.038;2022-10-30T12:57:09;21.60;96.00
3071;DHT22;1546;47.208;9.038;2022-10-30T12:59:45;21.60;95.30
3071;DHT22;1546;47.208;9.038;2022-10-30T13:02:26;21.50;95.00
3071;DHT22;1546;47.208;9.038;2022-10-30T13:05:00;21.30;94.10
3071;DHT22;1546;47.208;9.038;2022-10-30T13:07:32;21.30;94.00
3071;DHT22;1546;47.208;9.038;2022-10-30T13:10:09;21.50;95.40
3071;DHT22;1546;47.208;9.038;2022-10-30T13:12:41;21.50;95.00
3071;DHT22;1546;47.208;9.038;2022-10-30T13:15:19;21.40;94.50
3071;DHT22;1546;47.208;9.038;2022-10-30T13:17:46;21.70;94.50
3071;DHT22;1546;47.208;9.038;2022-10-30T13:20:14;21.50;94.40
3071;DHT22;1546;47.208;9.038;2022-10-30T13:22:45;21.60;94.40
3071;DHT22;1546;47.208;9.038;2022-10-30T13:25:19;21.70;93.80
3071;DHT22;1546;47.208;9.038;2022-10-30T13:27:52;21.80;94.10
3071;DHT22;1546;47.208;9.038;2022-10-30T13:30:21;21.90;94.30
3071;DHT22;1546;47.208;9.038;2022-10-30T13:32:59;22.10;93.90
3071;DHT22;1546;47.208;9.038;2022-10-30T13:35:34;22.50;93.80
3071;DHT22;1546;47.208;9.038;2022-10-30T13:38:16;22.80;93.40
3071;DHT22;1546;47.208;9.038;2022-10-30T13:40:51;22.80;93.40
3071;DHT22;1546;47.208;9.038;2022-10-30T13:43:27;22.80;93.50
3071;DHT22;1546;47.208;9.038;2022-10-30T13:46:11;22.90;93.80
3071;DHT22;1546;47.208;9.038;2022-10-30T13:48:49;22.80;93.90
3071;DHT22;1546;47.208;9.038;2022-10-30T13:51:27;22.80;93.80
3071;DHT22;1546;47.208;9.038;2022-10-30T13:54:02;22.70;94.20
3071;DHT22;1546;47.208;9.038;2022-10-30T13:56:30;22.70;94.00
3071;DHT22;1546;47.208;9.038;2022-10-30T13:59:06;22.50;94.10
3071;DHT22;1546;47.208;9.038;2022-10-30T14:01:38;22.70;94.50
3071;DHT22;1546;47.208;9.038;2022-10-30T14:04:13;22.80;94.50
3071;DHT22;1546;47.208;9.038;2022-10-30T14:06:46;22.80;94.20
3071;DHT22;1546;47.208;9.038;2022-10-30T14:09:22;22.80;94.40
3071;DHT22;1546;47.208;9.038;2022-10-30T14:11:52;22.40;94.30
3071;DHT22;1546;47.208;9.038;2022-10-30T14:14:28;22.10;94.60
3071;DHT22;1546;47.208;9.038;2022-10-30T14:17:11;21.80;95.30
3071;DHT22;1546;47.208;9.038;2022-10-30T14:22:42;21.40;95.70
3071;DHT22;1546;47.208;9.038;2022-10-30T14:25:13;21.30;96.20
3071;DHT22;1546;47.208;9.038;2022-10-30T14:27:41;21.40;96.30
3071;DHT22;1546;47.208;9.038;2022-10-30T14:30:18;21.70;96.00
3071;DHT22;1546;47.208;9.038;2022-10-30T14:32:49;21.90;94.90
3071;DHT22;1546;47.208;9.038;2022-10-30T14:35:41;22.00;95.60
3071;DHT22;1546;47.208;9.038;2022-10-30T14:38:24;22.40;94.10
3071;DHT22;1546;47.208;9.038;2022-10-30T14:41:16;22.70;93.60
3071;DHT22;1546;47.208;9.038;2022-10-30T14:43:51;22.80;93.20
3071;DHT22;1546;47.208;9.038;2022-10-30T14:46:30;22.90;93.50
3071;DHT22;1546;47.208;9.038;2022-10-30T14:49:08;23.30;93.90
3071;DHT22;1546;47.208;9.038;2022-10-30T14:51:41;23.10;93.30
3071;DHT22;1546;47.208;9.038;2022-10-30T14:54:16;23.00;93.40
3071;DHT22;1546;47.208;9.038;2022-10-30T14:56:47;22.70;93.50
3071;DHT22;1546;47.208;9.038;2022-10-30T14:59:29;22.20;93.70
3071;DHT22;1546;47.208;9.038;2022-10-30T15:02:09;21.80;94.40
3071;DHT22;1546;47.208;9.038;2022-10-30T15:04:49;21.20;95.00
3071;DHT22;1546;47.208;9.038;2022-10-30T15:07:25;20.80;95.80
3071;DHT22;1546;47.208;9.038;2022-10-30T15:10:09;20.60;96.60
3071;DHT22;1546;47.208;9.038;2022-10-30T15:13:02;20.40;96.70
3071;DHT22;1546;47.208;9.038;2022-10-30T15:15:31;20.20;97.00
3071;DHT22;1546;47.208;9.038;2022-10-30T15:18:03;19.90;97.00
3071;DHT22;1546;47.208;9.038;2022-10-30T15:20:33;19.70;97.30
3071;DHT22;1546;47.208;9.038;2022-10-30T15:23:08;19.60;97.80
3071;DHT22;1546;47.208;9.038;2022-10-30T15:25:38;19.50;98.10
3071;DHT22;1546;47.208;9.038;2022-10-30T15:28:14;19.40;97.70
3071;DHT22;1546;47.208;9.038;2022-10-30T15:30:57;19.30;97.90
3071;DHT22;1546;47.208;9.038;2022-10-30T15:33:26;19.20;99.90
3071;DHT22;1546;47.208;9.038;2022-10-30T15:35:54;19.00;99.90
3071;DHT22;1546;47.208;9.038;2022-10-30T15:38:21;18.80;99.90
3071;DHT22;1546;47.208;9.038;2022-10-30T15:40:48;18.60;99.90
3071;DHT22;1546;47.208;9.038;2022-10-30T15:43:17;18.40;99.90
3071;DHT22;1546;47.208;9.038;2022-10-30T15:45:45;18.30;99.90
3071;DHT22;1546;47.208;9.038;2022-10-30T15:48:21;18.20;99.90
3071;DHT22;1546;47.208;9.038;2022-10-30T15:50:58;18.00;99.90
3071;DHT22;1546;47.208;9.038;2022-10-30T15:53:33;18.00;99.90
3071;DHT22;1546;47.208;9.038;2022-10-30T15:56:02;17.70;99.90
3071;DHT22;1546;47.208;9.038;2022-10-30T15:58:30;17.60;99.90
3071;DHT22;1546;47.208;9.038;2022-10-30T16:01:00;17.50;99.90
3071;DHT22;1546;47.208;9.038;2022-10-30T16:03:27;17.40;99.90
3071;DHT22;1546;47.208;9.038;2022-10-30T16:06:14;17.40;99.90
3071;DHT22;1546;47.208;9.038;2022-10-30T16:08:43;17.20;99.90
3071;DHT22;1546;47.208;9.038;2022-10-30T16:11:10;17.10;99.90
3071;DHT22;1546;47.208;9.038;2022-10-30T16:13:37;17.00;99.90
3071;DHT22;1546;47.208;9.038;2022-10-30T16:16:06;16.90;99.90
3071;DHT22;1546;47.208;9.038;2022-10-30T16:18:38;16.80;99.90
3071;DHT22;1546;47.208;9.038;2022-10-30T16:21:08;16.70;99.90
3071;DHT22;1546;47.208;9.038;2022-10-30T16:23:37;16.60;99.90
3071;DHT22;1546;47.208;9.038;2022-10-30T16:26:04;16.50;99.90
3071;DHT22;1546;47.208;9.038;2022-10-30T16:28:35;16.30;99.90
3071;DHT22;1546;47.208;9.038;2022-10-30T16:31:05;16.20;99.90
3071;DHT22;1546;47.208;9.038;2022-10-30T16:33:34;16.20;99.90